This is the latest recevied weather packets stored in our database for station/object N1JOV-7. If no packets are shown the sender has not sent any weather packets the latest 10 day(s).
| Time | Temp. | Humidity | Pressure | Rain* | Wind** | Luminosity | Snow |
|---|---|---|---|---|---|---|---|
| 1788217262 | 18.33° C | 64% | 1018.7 hPa | 0 mm | - | - | - |
| 1788216662 | 18.89° C | 62% | 1018.8 hPa | 0 mm | - | - | - |
| 1788216062 | 19.44° C | 60% | 1018.6 hPa | 0 mm | - | - | - |
| 1788215461 | 20° C | 58% | 1018.6 hPa | 0 mm | - | - | - |
| 1788214861 | 20.56° C | 55% | 1018.5 hPa | 0 mm | - | - | - |
| 1788214261 | 21.11° C | 54% | 1018.4 hPa | 0 mm | - | - | - |
| 1788213663 | 21.11° C | 55% | 1018.6 hPa | 0 mm | - | - | - |
| 1788213062 | 21.11° C | 55% | 1018.5 hPa | 0 mm | - | - | - |
| 1788212462 | 21.11° C | 55% | 1018.6 hPa | 0 mm | - | - | - |
| 1788211862 | 21.67° C | 56% | 1018.8 hPa | 0 mm | - | - | - |
| 1788211261 | 21.67° C | 55% | 1018.7 hPa | 0 mm | - | - | - |
| 1788210661 | 22.22° C | 54% | 1018.8 hPa | 0 mm | - | - | - |
| 1788210061 | 21.67° C | 56% | 1018.9 hPa | 0 mm | - | - | - |
| 1788209469 | 22.22° C | 56% | 1018.6 hPa | 0 mm | - | - | - |
| 1788208861 | 23.33° C | 53% | 1018.7 hPa | 0 mm | - | - | - |
| 1788208261 | 23.33° C | 52% | 1018.6 hPa | 0 mm | - | - | - |
| 1788207662 | 23.89° C | 51% | 1018.5 hPa | 0 mm | - | - | - |
| 1788207062 | 25° C | 49% | 1018.6 hPa | 0 mm | - | - | - |
| 1788206462 | 24.44° C | 50% | 1018.6 hPa | 0 mm | - | - | - |
| 1788205862 | 25.56° C | 49% | 1018.4 hPa | 0 mm | - | - | - |
| 1788205262 | 26.11° C | 43% | 1018.4 hPa | 0 mm | - | - | - |
| 1788204662 | 26.67° C | 40% | 1018.6 hPa | 0 mm | - | - | - |
| 1788204061 | 25.56° C | 41% | 1018.4 hPa | 0 mm | - | - | - |
| 1788203461 | 26.11° C | 41% | 1018.6 hPa | 0 mm | - | - | - |
| 1788202861 | 26.11° C | 40% | 1018.6 hPa | 0 mm | - | - | - |
* Rain latest hour (hover to see other rain measurements)
** Current wind speed in m/s (hover to see current wind gust speed)